sensor_id;sensor_type;location;lat;lon;timestamp;P1;durP1;ratioP1;P2;durP2;ratioP2
52692;SDS011;68218;51.012;-1.648;2023-07-20T00:02:13;12.30;;;11.57;;
52692;SDS011;68218;51.012;-1.648;2023-07-20T00:04:39;12.23;;;11.52;;
52692;SDS011;68218;51.012;-1.648;2023-07-20T00:07:04;13.93;;;12.93;;
52692;SDS011;68218;51.012;-1.648;2023-07-20T00:09:30;13.35;;;12.55;;
52692;SDS011;68218;51.012;-1.648;2023-07-20T00:11:56;13.38;;;12.57;;
52692;SDS011;68218;51.012;-1.648;2023-07-20T00:14:21;12.05;;;11.32;;
52692;SDS011;68218;51.012;-1.648;2023-07-20T00:16:47;12.65;;;11.85;;
52692;SDS011;68218;51.012;-1.648;2023-07-20T00:19:21;11.68;;;10.98;;
52692;SDS011;68218;51.012;-1.648;2023-07-20T00:21:50;11.30;;;10.60;;
52692;SDS011;68218;51.012;-1.648;2023-07-20T00:24:15;12.13;;;11.38;;
52692;SDS011;68218;51.012;-1.648;2023-07-20T00:26:41;12.60;;;11.85;;
52692;SDS011;68218;51.012;-1.648;2023-07-20T00:29:06;12.40;;;11.68;;
52692;SDS011;68218;51.012;-1.648;2023-07-20T00:31:32;13.48;;;12.68;;
52692;SDS011;68218;51.012;-1.648;2023-07-20T00:33:57;13.13;;;12.32;;
52692;SDS011;68218;51.012;-1.648;2023-07-20T00:36:22;12.90;;;12.10;;
52692;SDS011;68218;51.012;-1.648;2023-07-20T00:38:48;12.40;;;11.60;;
52692;SDS011;68218;51.012;-1.648;2023-07-20T00:41:14;13.02;;;12.23;;
52692;SDS011;68218;51.012;-1.648;2023-07-20T00:43:40;12.98;;;12.18;;
52692;SDS011;68218;51.012;-1.648;2023-07-20T00:46:05;13.10;;;12.27;;
52692;SDS011;68218;51.012;-1.648;2023-07-20T00:48:31;12.57;;;11.77;;
52692;SDS011;68218;51.012;-1.648;2023-07-20T00:50:58;12.80;;;12.00;;
52692;SDS011;68218;51.012;-1.648;2023-07-20T00:53:25;13.65;;;12.77;;
52692;SDS011;68218;51.012;-1.648;2023-07-20T00:55:51;12.80;;;12.00;;
52692;SDS011;68218;51.012;-1.648;2023-07-20T00:58:17;14.10;;;12.95;;
52692;SDS011;68218;51.012;-1.648;2023-07-20T01:00:42;13.02;;;12.23;;
52692;SDS011;68218;51.012;-1.648;2023-07-20T01:03:08;14.00;;;13.10;;
52692;SDS011;68218;51.012;-1.648;2023-07-20T01:05:39;12.98;;;12.18;;
52692;SDS011;68218;51.012;-1.648;2023-07-20T01:08:15;12.73;;;11.93;;
52692;SDS011;68218;51.012;-1.648;2023-07-20T01:10:51;14.05;;;13.15;;
52692;SDS011;68218;51.012;-1.648;2023-07-20T01:13:22;13.40;;;12.60;;
52692;SDS011;68218;51.012;-1.648;2023-07-20T01:15:57;13.00;;;12.02;;
52692;SDS011;68218;51.012;-1.648;2023-07-20T01:18:25;12.20;;;11.40;;
52692;SDS011;68218;51.012;-1.648;2023-07-20T01:20:50;12.25;;;11.45;;
52692;SDS011;68218;51.012;-1.648;2023-07-20T01:26:02;12.10;;;11.38;;
52692;SDS011;68218;51.012;-1.648;2023-07-20T01:28:40;13.07;;;12.27;;
52692;SDS011;68218;51.012;-1.648;2023-07-20T01:31:30;14.05;;;13.15;;
52692;SDS011;68218;51.012;-1.648;2023-07-20T01:33:59;11.98;;;11.27;;
52692;SDS011;68218;51.012;-1.648;2023-07-20T01:36:28;12.43;;;11.65;;
52692;SDS011;68218;51.012;-1.648;2023-07-20T01:38:56;12.30;;;11.50;;
52692;SDS011;68218;51.012;-1.648;2023-07-20T01:41:22;11.90;;;11.10;;
52692;SDS011;68218;51.012;-1.648;2023-07-20T01:43:48;11.45;;;10.75;;
52692;SDS011;68218;51.012;-1.648;2023-07-20T01:46:13;13.55;;;12.65;;
52692;SDS011;68218;51.012;-1.648;2023-07-20T01:48:39;12.25;;;11.45;;
52692;SDS011;68218;51.012;-1.648;2023-07-20T01:51:04;11.70;;;10.98;;
52692;SDS011;68218;51.012;-1.648;2023-07-20T01:53:30;13.05;;;12.23;;
52692;SDS011;68218;51.012;-1.648;2023-07-20T01:55:56;11.90;;;11.10;;
52692;SDS011;68218;51.012;-1.648;2023-07-20T01:58:22;11.65;;;10.93;;
52692;SDS011;68218;51.012;-1.648;2023-07-20T02:00:48;12.15;;;11.43;;
52692;SDS011;68218;51.012;-1.648;2023-07-20T02:03:13;12.10;;;11.30;;
52692;SDS011;68218;51.012;-1.648;2023-07-20T02:05:39;12.90;;;12.07;;
52692;SDS011;68218;51.012;-1.648;2023-07-20T02:08:04;12.90;;;12.10;;
52692;SDS011;68218;51.012;-1.648;2023-07-20T02:10:30;13.63;;;12.80;;
52692;SDS011;68218;51.012;-1.648;2023-07-20T02:12:55;11.90;;;11.18;;
52692;SDS011;68218;51.012;-1.648;2023-07-20T02:15:21;14.30;;;13.40;;
52692;SDS011;68218;51.012;-1.648;2023-07-20T02:17:47;14.15;;;13.25;;
52692;SDS011;68218;51.012;-1.648;2023-07-20T02:20:13;12.88;;;12.07;;
52692;SDS011;68218;51.012;-1.648;2023-07-20T02:22:39;13.30;;;12.50;;
52692;SDS011;68218;51.012;-1.648;2023-07-20T02:25:05;14.25;;;13.35;;
52692;SDS011;68218;51.012;-1.648;2023-07-20T02:27:32;12.10;;;11.38;;
52692;SDS011;68218;51.012;-1.648;2023-07-20T02:30:00;14.20;;;13.32;;
52692;SDS011;68218;51.012;-1.648;2023-07-20T02:32:27;12.40;;;11.63;;
52692;SDS011;68218;51.012;-1.648;2023-07-20T02:34:53;12.88;;;12.07;;
52692;SDS011;68218;51.012;-1.648;2023-07-20T02:37:18;12.45;;;11.73;;
52692;SDS011;68218;51.012;-1.648;2023-07-20T02:39:43;12.68;;;11.88;;
52692;SDS011;68218;51.012;-1.648;2023-07-20T02:42:09;12.35;;;11.60;;
52692;SDS011;68218;51.012;-1.648;2023-07-20T02:44:34;13.57;;;12.57;;
52692;SDS011;68218;51.012;-1.648;2023-07-20T02:47:00;12.43;;;11.68;;
52692;SDS011;68218;51.012;-1.648;2023-07-20T02:49:25;13.10;;;12.30;;
52692;SDS011;68218;51.012;-1.648;2023-07-20T02:51:51;13.13;;;12.32;;
52692;SDS011;68218;51.012;-1.648;2023-07-20T02:54:17;13.15;;;12.35;;
52692;SDS011;68218;51.012;-1.648;2023-07-20T02:56:42;12.00;;;11.27;;
52692;SDS011;68218;51.012;-1.648;2023-07-20T02:59:07;13.30;;;12.50;;
52692;SDS011;68218;51.012;-1.648;2023-07-20T03:01:33;12.05;;;11.25;;
52692;SDS011;68218;51.012;-1.648;2023-07-20T03:03:59;11.95;;;11.20;;
52692;SDS011;68218;51.012;-1.648;2023-07-20T03:06:24;11.63;;;10.93;;
52692;SDS011;68218;51.012;-1.648;2023-07-20T03:08:50;12.10;;;11.38;;
52692;SDS011;68218;51.012;-1.648;2023-07-20T03:11:17;12.05;;;11.30;;
52692;SDS011;68218;51.012;-1.648;2023-07-20T03:13:44;12.02;;;11.32;;
52692;SDS011;68218;51.012;-1.648;2023-07-20T03:16:10;12.55;;;11.77;;
52692;SDS011;68218;51.012;-1.648;2023-07-20T03:18:37;12.30;;;11.57;;
52692;SDS011;68218;51.012;-1.648;2023-07-20T03:21:03;12.85;;;11.95;;
52692;SDS011;68218;51.012;-1.648;2023-07-20T03:23:29;12.88;;;12.07;;
52692;SDS011;68218;51.012;-1.648;2023-07-20T03:25:55;13.10;;;12.30;;
52692;SDS011;68218;51.012;-1.648;2023-07-20T03:28:20;11.45;;;10.75;;
52692;SDS011;68218;51.012;-1.648;2023-07-20T03:30:46;12.27;;;11.55;;
52692;SDS011;68218;51.012;-1.648;2023-07-20T03:33:12;11.70;;;11.00;;
52692;SDS011;68218;51.012;-1.648;2023-07-20T03:35:37;11.30;;;10.60;;
52692;SDS011;68218;51.012;-1.648;2023-07-20T03:38:02;11.95;;;11.20;;
52692;SDS011;68218;51.012;-1.648;2023-07-20T03:40:29;13.98;;;12.98;;
52692;SDS011;68218;51.012;-1.648;2023-07-20T03:42:54;12.02;;;11.32;;
52692;SDS011;68218;51.012;-1.648;2023-07-20T03:45:20;13.25;;;12.45;;
52692;SDS011;68218;51.012;-1.648;2023-07-20T03:47:46;12.43;;;11.63;;
52692;SDS011;68218;51.012;-1.648;2023-07-20T03:50:13;12.35;;;11.55;;
52692;SDS011;68218;51.012;-1.648;2023-07-20T03:52:38;12.73;;;11.93;;
52692;SDS011;68218;51.012;-1.648;2023-07-20T03:55:04;12.13;;;11.32;;
52692;SDS011;68218;51.012;-1.648;2023-07-20T03:57:30;12.75;;;11.93;;
52692;SDS011;68218;51.012;-1.648;2023-07-20T03:59:57;12.18;;;11.38;;
52692;SDS011;68218;51.012;-1.648;2023-07-20T04:02:22;12.43;;;11.63;;
52692;SDS011;68218;51.012;-1.648;2023-07-20T04:04:48;11.85;;;11.07;;
52692;SDS011;68218;51.012;-1.648;2023-07-20T04:07:13;10.50;;;9.80;;
52692;SDS011;68218;51.012;-1.648;2023-07-20T04:09:38;11.23;;;10.52;;
52692;SDS011;68218;51.012;-1.648;2023-07-20T04:12:04;10.65;;;9.95;;
52692;SDS011;68218;51.012;-1.648;2023-07-20T04:14:30;12.07;;;11.27;;
52692;SDS011;68218;51.012;-1.648;2023-07-20T04:16:55;10.68;;;9.98;;
52692;SDS011;68218;51.012;-1.648;2023-07-20T04:19:20;11.32;;;10.63;;
52692;SDS011;68218;51.012;-1.648;2023-07-20T04:21:46;13.05;;;12.23;;
52692;SDS011;68218;51.012;-1.648;2023-07-20T04:24:11;11.07;;;10.38;;
52692;SDS011;68218;51.012;-1.648;2023-07-20T04:26:36;11.35;;;10.63;;
52692;SDS011;68218;51.012;-1.648;2023-07-20T04:29:02;11.40;;;10.68;;
52692;SDS011;68218;51.012;-1.648;2023-07-20T04:31:28;12.32;;;11.52;;
52692;SDS011;68218;51.012;-1.648;2023-07-20T04:33:54;10.63;;;9.93;;
52692;SDS011;68218;51.012;-1.648;2023-07-20T04:36:19;11.32;;;10.57;;
52692;SDS011;68218;51.012;-1.648;2023-07-20T04:38:45;12.30;;;11.50;;
52692;SDS011;68218;51.012;-1.648;2023-07-20T04:41:11;11.68;;;10.95;;
52692;SDS011;68218;51.012;-1.648;2023-07-20T04:43:40;11.02;;;10.32;;
52692;SDS011;68218;51.012;-1.648;2023-07-20T04:46:06;10.73;;;10.02;;
52692;SDS011;68218;51.012;-1.648;2023-07-20T04:48:32;11.55;;;10.82;;
52692;SDS011;68218;51.012;-1.648;2023-07-20T04:50:57;12.07;;;11.27;;
52692;SDS011;68218;51.012;-1.648;2023-07-20T04:53:23;11.27;;;10.57;;
52692;SDS011;68218;51.012;-1.648;2023-07-20T04:55:49;11.88;;;11.07;;
52692;SDS011;68218;51.012;-1.648;2023-07-20T04:58:19;10.98;;;10.25;;
52692;SDS011;68218;51.012;-1.648;2023-07-20T05:00:47;10.95;;;10.25;;
52692;SDS011;68218;51.012;-1.648;2023-07-20T05:03:14;10.73;;;10.02;;
52692;SDS011;68218;51.012;-1.648;2023-07-20T05:05:39;10.77;;;10.07;;
52692;SDS011;68218;51.012;-1.648;2023-07-20T05:08:05;10.85;;;10.15;;
52692;SDS011;68218;51.012;-1.648;2023-07-20T05:10:30;11.52;;;10.82;;
52692;SDS011;68218;51.012;-1.648;2023-07-20T05:12:57;11.38;;;10.68;;
52692;SDS011;68218;51.012;-1.648;2023-07-20T05:15:23;11.18;;;10.48;;
52692;SDS011;68218;51.012;-1.648;2023-07-20T05:17:48;11.38;;;10.65;;
52692;SDS011;68218;51.012;-1.648;2023-07-20T05:20:13;10.82;;;10.13;;
52692;SDS011;68218;51.012;-1.648;2023-07-20T05:22:39;11.00;;;10.27;;
52692;SDS011;68218;51.012;-1.648;2023-07-20T05:25:08;11.15;;;10.45;;
52692;SDS011;68218;51.012;-1.648;2023-07-20T05:27:38;11.48;;;10.68;;
52692;SDS011;68218;51.012;-1.648;2023-07-20T05:30:04;11.50;;;10.77;;
52692;SDS011;68218;51.012;-1.648;2023-07-20T05:32:31;10.90;;;10.20;;
52692;SDS011;68218;51.012;-1.648;2023-07-20T05:34:56;11.15;;;10.45;;
52692;SDS011;68218;51.012;-1.648;2023-07-20T05:37:22;11.88;;;11.07;;
52692;SDS011;68218;51.012;-1.648;2023-07-20T05:39:47;10.93;;;10.23;;
52692;SDS011;68218;51.012;-1.648;2023-07-20T05:42:13;10.82;;;10.13;;
52692;SDS011;68218;51.012;-1.648;2023-07-20T05:44:39;11.95;;;11.15;;
52692;SDS011;68218;51.012;-1.648;2023-07-20T05:47:05;10.52;;;9.82;;
52692;SDS011;68218;51.012;-1.648;2023-07-20T05:49:30;11.27;;;10.57;;
52692;SDS011;68218;51.012;-1.648;2023-07-20T05:51:56;11.10;;;10.40;;
52692;SDS011;68218;51.012;-1.648;2023-07-20T05:54:22;11.30;;;10.60;;
52692;SDS011;68218;51.012;-1.648;2023-07-20T05:56:49;11.70;;;10.98;;
52692;SDS011;68218;51.012;-1.648;2023-07-20T05:59:14;12.23;;;11.43;;
52692;SDS011;68218;51.012;-1.648;2023-07-20T06:01:40;11.32;;;10.60;;
52692;SDS011;68218;51.012;-1.648;2023-07-20T06:04:06;11.65;;;10.88;;
52692;SDS011;68218;51.012;-1.648;2023-07-20T06:06:31;12.25;;;11.45;;
52692;SDS011;68218;51.012;-1.648;2023-07-20T06:08:58;12.10;;;11.30;;
52692;SDS011;68218;51.012;-1.648;2023-07-20T06:11:23;12.82;;;12.00;;
52692;SDS011;68218;51.012;-1.648;2023-07-20T06:13:49;11.75;;;10.95;;
52692;SDS011;68218;51.012;-1.648;2023-07-20T06:16:14;11.10;;;10.40;;
52692;SDS011;68218;51.012;-1.648;2023-07-20T06:18:40;11.70;;;10.90;;
52692;SDS011;68218;51.012;-1.648;2023-07-20T06:21:05;11.60;;;10.80;;
52692;SDS011;68218;51.012;-1.648;2023-07-20T06:23:31;11.95;;;11.15;;
52692;SDS011;68218;51.012;-1.648;2023-07-20T06:25:56;11.38;;;10.65;;
52692;SDS011;68218;51.012;-1.648;2023-07-20T06:28:21;11.13;;;10.43;;
52692;SDS011;68218;51.012;-1.648;2023-07-20T06:30:47;11.25;;;10.50;;
52692;SDS011;68218;51.012;-1.648;2023-07-20T06:33:12;11.43;;;10.68;;
52692;SDS011;68218;51.012;-1.648;2023-07-20T06:35:37;11.90;;;11.10;;
52692;SDS011;68218;51.012;-1.648;2023-07-20T06:38:08;11.20;;;10.48;;
52692;SDS011;68218;51.012;-1.648;2023-07-20T06:40:33;10.90;;;10.20;;
52692;SDS011;68218;51.012;-1.648;2023-07-20T06:42:58;11.02;;;10.32;;
52692;SDS011;68218;51.012;-1.648;2023-07-20T06:45:24;12.32;;;11.52;;
52692;SDS011;68218;51.012;-1.648;2023-07-20T06:47:50;11.07;;;10.38;;
52692;SDS011;68218;51.012;-1.648;2023-07-20T06:50:15;11.57;;;10.80;;
52692;SDS011;68218;51.012;-1.648;2023-07-20T06:52:41;11.23;;;10.52;;
52692;SDS011;68218;51.012;-1.648;2023-07-20T06:55:06;12.38;;;11.57;;
52692;SDS011;68218;51.012;-1.648;2023-07-20T06:57:32;12.00;;;11.20;;
52692;SDS011;68218;51.012;-1.648;2023-07-20T06:59:57;13.10;;;12.20;;
52692;SDS011;68218;51.012;-1.648;2023-07-20T07:02:23;11.55;;;10.77;;
52692;SDS011;68218;51.012;-1.648;2023-07-20T07:04:48;13.95;;;12.73;;
52692;SDS011;68218;51.012;-1.648;2023-07-20T07:07:14;11.57;;;10.77;;
52692;SDS011;68218;51.012;-1.648;2023-07-20T07:09:40;15.23;;;14.15;;
52692;SDS011;68218;51.012;-1.648;2023-07-20T07:12:06;11.68;;;10.88;;
52692;SDS011;68218;51.012;-1.648;2023-07-20T07:14:32;13.07;;;12.18;;
52692;SDS011;68218;51.012;-1.648;2023-07-20T07:16:57;12.88;;;12.02;;
52692;SDS011;68218;51.012;-1.648;2023-07-20T07:19:23;18.90;;;17.60;;
52692;SDS011;68218;51.012;-1.648;2023-07-20T07:21:48;14.43;;;13.43;;
52692;SDS011;68218;51.012;-1.648;2023-07-20T07:24:13;18.95;;;17.65;;
52692;SDS011;68218;51.012;-1.648;2023-07-20T07:26:39;14.80;;;13.82;;
52692;SDS011;68218;51.012;-1.648;2023-07-20T07:29:04;13.80;;;12.88;;
52692;SDS011;68218;51.012;-1.648;2023-07-20T07:31:30;18.52;;;17.23;;
52692;SDS011;68218;51.012;-1.648;2023-07-20T07:33:56;19.27;;;17.88;;
52692;SDS011;68218;51.012;-1.648;2023-07-20T07:36:21;18.50;;;17.20;;
52692;SDS011;68218;51.012;-1.648;2023-07-20T07:38:49;18.40;;;17.10;;
52692;SDS011;68218;51.012;-1.648;2023-07-20T07:41:14;15.57;;;14.48;;
52692;SDS011;68218;51.012;-1.648;2023-07-20T07:43:40;19.02;;;17.70;;
52692;SDS011;68218;51.012;-1.648;2023-07-20T07:46:05;17.73;;;16.50;;
52692;SDS011;68218;51.012;-1.648;2023-07-20T07:48:31;18.42;;;17.13;;
52692;SDS011;68218;51.012;-1.648;2023-07-20T07:50:56;15.95;;;14.85;;
52692;SDS011;68218;51.012;-1.648;2023-07-20T07:53:22;19.75;;;18.40;;
52692;SDS011;68218;51.012;-1.648;2023-07-20T07:55:47;19.80;;;18.40;;
52692;SDS011;68218;51.012;-1.648;2023-07-20T07:58:13;17.35;;;16.15;;
52692;SDS011;68218;51.012;-1.648;2023-07-20T08:00:39;18.52;;;17.23;;
52692;SDS011;68218;51.012;-1.648;2023-07-20T08:03:05;18.92;;;17.58;;
52692;SDS011;68218;51.012;-1.648;2023-07-20T08:05:31;11.88;;;11.07;;
52692;SDS011;68218;51.012;-1.648;2023-07-20T08:07:56;12.27;;;11.45;;
52692;SDS011;68218;51.012;-1.648;2023-07-20T08:10:22;18.73;;;17.42;;
52692;SDS011;68218;51.012;-1.648;2023-07-20T08:12:47;11.85;;;11.05;;
52692;SDS011;68218;51.012;-1.648;2023-07-20T08:15:13;11.98;;;11.18;;
52692;SDS011;68218;51.012;-1.648;2023-07-20T08:17:40;18.38;;;16.98;;
52692;SDS011;68218;51.012;-1.648;2023-07-20T08:20:07;19.80;;;18.40;;
52692;SDS011;68218;51.012;-1.648;2023-07-20T08:22:36;12.30;;;11.48;;
52692;SDS011;68218;51.012;-1.648;2023-07-20T08:25:01;12.02;;;11.23;;
52692;SDS011;68218;51.012;-1.648;2023-07-20T08:27:27;11.32;;;10.52;;
52692;SDS011;68218;51.012;-1.648;2023-07-20T08:29:52;12.48;;;11.63;;
52692;SDS011;68218;51.012;-1.648;2023-07-20T08:32:18;12.38;;;11.48;;
52692;SDS011;68218;51.012;-1.648;2023-07-20T08:34:43;12.80;;;11.90;;
52692;SDS011;68218;51.012;-1.648;2023-07-20T08:37:08;12.25;;;11.43;;
52692;SDS011;68218;51.012;-1.648;2023-07-20T08:39:35;12.63;;;11.73;;
52692;SDS011;68218;51.012;-1.648;2023-07-20T08:42:01;12.98;;;12.07;;
52692;SDS011;68218;51.012;-1.648;2023-07-20T08:44:29;13.45;;;12.55;;
52692;SDS011;68218;51.012;-1.648;2023-07-20T08:46:56;12.90;;;12.00;;
52692;SDS011;68218;51.012;-1.648;2023-07-20T08:49:23;12.65;;;11.75;;
52692;SDS011;68218;51.012;-1.648;2023-07-20T08:51:49;13.13;;;12.23;;
52692;SDS011;68218;51.012;-1.648;2023-07-20T08:54:16;12.68;;;11.77;;
52692;SDS011;68218;51.012;-1.648;2023-07-20T08:56:41;12.57;;;11.68;;
52692;SDS011;68218;51.012;-1.648;2023-07-20T08:59:10;13.50;;;12.60;;
52692;SDS011;68218;51.012;-1.648;2023-07-20T09:01:38;12.18;;;11.38;;
52692;SDS011;68218;51.012;-1.648;2023-07-20T09:04:04;12.77;;;11.88;;
52692;SDS011;68218;51.012;-1.648;2023-07-20T09:06:30;12.75;;;11.85;;
52692;SDS011;68218;51.012;-1.648;2023-07-20T09:08:55;13.70;;;12.77;;
52692;SDS011;68218;51.012;-1.648;2023-07-20T09:11:21;12.98;;;12.07;;
52692;SDS011;68218;51.012;-1.648;2023-07-20T09:13:46;15.43;;;14.38;;
52692;SDS011;68218;51.012;-1.648;2023-07-20T09:16:15;15.70;;;14.70;;
52692;SDS011;68218;51.012;-1.648;2023-07-20T09:18:41;18.77;;;17.48;;
52692;SDS011;68218;51.012;-1.648;2023-07-20T09:21:06;17.48;;;16.27;;
52692;SDS011;68218;51.012;-1.648;2023-07-20T09:23:35;15.55;;;14.55;;
52692;SDS011;68218;51.012;-1.648;2023-07-20T09:26:10;16.10;;;15.07;;
52692;SDS011;68218;51.012;-1.648;2023-07-20T09:28:42;16.52;;;15.43;;
52692;SDS011;68218;51.012;-1.648;2023-07-20T09:31:19;15.95;;;14.70;;
52692;SDS011;68218;51.012;-1.648;2023-07-20T09:33:47;17.10;;;16.00;;
52692;SDS011;68218;51.012;-1.648;2023-07-20T09:36:13;18.55;;;17.35;;
52692;SDS011;68218;51.012;-1.648;2023-07-20T09:38:42;19.75;;;18.45;;
52692;SDS011;68218;51.012;-1.648;2023-07-20T09:41:08;19.45;;;18.08;;
52692;SDS011;68218;51.012;-1.648;2023-07-20T09:43:38;21.42;;;20.02;;
52692;SDS011;68218;51.012;-1.648;2023-07-20T09:46:04;17.70;;;16.55;;
52692;SDS011;68218;51.012;-1.648;2023-07-20T09:48:30;21.02;;;19.58;;
52692;SDS011;68218;51.012;-1.648;2023-07-20T09:50:55;24.35;;;22.55;;
52692;SDS011;68218;51.012;-1.648;2023-07-20T09:53:21;21.98;;;20.48;;
52692;SDS011;68218;51.012;-1.648;2023-07-20T09:55:50;24.55;;;22.85;;
52692;SDS011;68218;51.012;-1.648;2023-07-20T09:58:17;21.65;;;20.25;;
52692;SDS011;68218;51.012;-1.648;2023-07-20T10:00:44;22.13;;;20.63;;
52692;SDS011;68218;51.012;-1.648;2023-07-20T10:03:13;21.75;;;20.35;;
52692;SDS011;68218;51.012;-1.648;2023-07-20T10:05:43;22.30;;;20.85;;
52692;SDS011;68218;51.012;-1.648;2023-07-20T10:08:12;17.95;;;16.65;;
52692;SDS011;68218;51.012;-1.648;2023-07-20T10:10:41;21.70;;;20.20;;
52692;SDS011;68218;51.012;-1.648;2023-07-20T10:13:10;22.27;;;20.67;;
52692;SDS011;68218;51.012;-1.648;2023-07-20T10:15:43;15.48;;;14.48;;
52692;SDS011;68218;51.012;-1.648;2023-07-20T10:18:59;12.88;;;11.95;;
52692;SDS011;68218;51.012;-1.648;2023-07-20T10:21:19;16.58;;;15.38;;
52692;SDS011;68218;51.012;-1.648;2023-07-20T10:23:48;19.38;;;18.08;;
52692;SDS011;68218;51.012;-1.648;2023-07-20T10:26:14;14.15;;;13.23;;
52692;SDS011;68218;51.012;-1.648;2023-07-20T10:28:39;21.58;;;20.17;;
52692;SDS011;68218;51.012;-1.648;2023-07-20T10:31:07;22.40;;;20.90;;
52692;SDS011;68218;51.012;-1.648;2023-07-20T10:33:34;21.48;;;20.08;;
52692;SDS011;68218;51.012;-1.648;2023-07-20T10:36:01;16.63;;;15.52;;
52692;SDS011;68218;51.012;-1.648;2023-07-20T10:38:43;12.43;;;11.52;;
52692;SDS011;68218;51.012;-1.648;2023-07-20T10:41:19;20.35;;;18.90;;
52692;SDS011;68218;51.012;-1.648;2023-07-20T10:43:46;14.95;;;13.95;;
52692;SDS011;68218;51.012;-1.648;2023-07-20T10:46:13;11.88;;;11.07;;
52692;SDS011;68218;51.012;-1.648;2023-07-20T10:51:24;19.80;;;18.50;;
52692;SDS011;68218;51.012;-1.648;2023-07-20T10:53:50;22.25;;;20.85;;
52692;SDS011;68218;51.012;-1.648;2023-07-20T10:56:20;14.50;;;13.50;;
52692;SDS011;68218;51.012;-1.648;2023-07-20T10:58:46;22.27;;;20.77;;
52692;SDS011;68218;51.012;-1.648;2023-07-20T11:01:18;12.18;;;11.38;;
52692;SDS011;68218;51.012;-1.648;2023-07-20T11:03:48;14.80;;;13.80;;
52692;SDS011;68218;51.012;-1.648;2023-07-20T11:11:23;14.95;;;13.95;;
52692;SDS011;68218;51.012;-1.648;2023-07-20T11:14:00;14.68;;;13.68;;
52692;SDS011;68218;51.012;-1.648;2023-07-20T11:19:05;13.43;;;12.52;;
52692;SDS011;68218;51.012;-1.648;2023-07-20T11:21:35;14.23;;;13.30;;
52692;SDS011;68218;51.012;-1.648;2023-07-20T11:24:03;14.43;;;13.43;;
52692;SDS011;68218;51.012;-1.648;2023-07-20T11:26:30;14.48;;;13.52;;
52692;SDS011;68218;51.012;-1.648;2023-07-20T11:28:55;19.40;;;18.00;;
52692;SDS011;68218;51.012;-1.648;2023-07-20T11:31:20;22.52;;;21.05;;
52692;SDS011;68218;51.012;-1.648;2023-07-20T11:33:46;12.35;;;11.45;;
52692;SDS011;68218;51.012;-1.648;2023-07-20T11:36:12;13.65;;;12.75;;
52692;SDS011;68218;51.012;-1.648;2023-07-20T11:38:39;13.20;;;12.30;;
52692;SDS011;68218;51.012;-1.648;2023-07-20T11:41:07;14.18;;;13.18;;
52692;SDS011;68218;51.012;-1.648;2023-07-20T11:43:32;15.43;;;14.40;;
52692;SDS011;68218;51.012;-1.648;2023-07-20T11:45:58;14.13;;;13.13;;
52692;SDS011;68218;51.012;-1.648;2023-07-20T11:48:24;12.57;;;11.75;;
52692;SDS011;68218;51.012;-1.648;2023-07-20T11:50:49;19.40;;;18.10;;
52692;SDS011;68218;51.012;-1.648;2023-07-20T11:53:15;14.48;;;13.48;;
52692;SDS011;68218;51.012;-1.648;2023-07-20T11:55:41;18.00;;;16.80;;
52692;SDS011;68218;51.012;-1.648;2023-07-20T11:58:07;15.00;;;13.90;;
52692;SDS011;68218;51.012;-1.648;2023-07-20T12:00:34;15.02;;;14.02;;
52692;SDS011;68218;51.012;-1.648;2023-07-20T12:03:00;15.50;;;14.50;;
52692;SDS011;68218;51.012;-1.648;2023-07-20T12:05:26;14.68;;;13.68;;
52692;SDS011;68218;51.012;-1.648;2023-07-20T12:07:52;14.73;;;13.73;;
52692;SDS011;68218;51.012;-1.648;2023-07-20T12:10:25;13.93;;;13.02;;
52692;SDS011;68218;51.012;-1.648;2023-07-20T12:12:53;13.02;;;12.13;;
52692;SDS011;68218;51.012;-1.648;2023-07-20T12:17:52;13.27;;;12.38;;
52692;SDS011;68218;51.012;-1.648;2023-07-20T12:20:28;12.95;;;12.05;;
52692;SDS011;68218;51.012;-1.648;2023-07-20T12:23:02;13.73;;;12.82;;
52692;SDS011;68218;51.012;-1.648;2023-07-20T12:28:11;14.27;;;13.27;;
52692;SDS011;68218;51.012;-1.648;2023-07-20T12:30:38;14.38;;;13.45;;
52692;SDS011;68218;51.012;-1.648;2023-07-20T12:33:05;15.38;;;14.38;;
52692;SDS011;68218;51.012;-1.648;2023-07-20T12:35:31;14.88;;;13.85;;
52692;SDS011;68218;51.012;-1.648;2023-07-20T12:37:57;14.23;;;13.23;;
52692;SDS011;68218;51.012;-1.648;2023-07-20T12:40:23;14.65;;;13.65;;
52692;SDS011;68218;51.012;-1.648;2023-07-20T12:42:48;23.52;;;22.00;;
52692;SDS011;68218;51.012;-1.648;2023-07-20T12:45:14;17.73;;;16.55;;
52692;SDS011;68218;51.012;-1.648;2023-07-20T12:47:40;12.35;;;11.45;;
52692;SDS011;68218;51.012;-1.648;2023-07-20T12:50:08;13.05;;;12.15;;
52692;SDS011;68218;51.012;-1.648;2023-07-20T12:52:37;14.57;;;13.57;;
52692;SDS011;68218;51.012;-1.648;2023-07-20T12:55:04;12.18;;;11.15;;
52692;SDS011;68218;51.012;-1.648;2023-07-20T12:57:30;12.27;;;11.45;;
52692;SDS011;68218;51.012;-1.648;2023-07-20T12:59:55;13.27;;;12.38;;
52692;SDS011;68218;51.012;-1.648;2023-07-20T13:02:21;13.20;;;12.30;;
52692;SDS011;68218;51.012;-1.648;2023-07-20T13:04:46;13.15;;;12.25;;
52692;SDS011;68218;51.012;-1.648;2023-07-20T13:07:12;12.65;;;11.82;;
52692;SDS011;68218;51.012;-1.648;2023-07-20T13:09:37;13.75;;;12.85;;
52692;SDS011;68218;51.012;-1.648;2023-07-20T13:12:03;12.75;;;11.85;;
52692;SDS011;68218;51.012;-1.648;2023-07-20T13:14:28;13.40;;;12.48;;
52692;SDS011;68218;51.012;-1.648;2023-07-20T13:16:55;12.00;;;11.13;;
52692;SDS011;68218;51.012;-1.648;2023-07-20T13:19:20;11.75;;;10.93;;
52692;SDS011;68218;51.012;-1.648;2023-07-20T13:21:46;12.90;;;11.80;;
52692;SDS011;68218;51.012;-1.648;2023-07-20T13:24:11;13.23;;;12.23;;
52692;SDS011;68218;51.012;-1.648;2023-07-20T13:26:37;12.50;;;11.57;;
52692;SDS011;68218;51.012;-1.648;2023-07-20T13:29:03;13.27;;;12.35;;
52692;SDS011;68218;51.012;-1.648;2023-07-20T13:31:28;12.18;;;11.27;;
52692;SDS011;68218;51.012;-1.648;2023-07-20T13:33:54;14.30;;;13.30;;
52692;SDS011;68218;51.012;-1.648;2023-07-20T13:36:20;15.02;;;14.02;;
52692;SDS011;68218;51.012;-1.648;2023-07-20T13:38:46;13.95;;;13.00;;
52692;SDS011;68218;51.012;-1.648;2023-07-20T13:41:13;14.30;;;13.30;;
52692;SDS011;68218;51.012;-1.648;2023-07-20T13:43:39;15.05;;;14.05;;
52692;SDS011;68218;51.012;-1.648;2023-07-20T13:46:05;13.70;;;12.80;;
52692;SDS011;68218;51.012;-1.648;2023-07-20T13:48:30;14.27;;;13.27;;
52692;SDS011;68218;51.012;-1.648;2023-07-20T13:50:56;14.52;;;13.52;;
52692;SDS011;68218;51.012;-1.648;2023-07-20T13:53:21;12.98;;;12.07;;
52692;SDS011;68218;51.012;-1.648;2023-07-20T13:55:47;13.07;;;12.18;;
52692;SDS011;68218;51.012;-1.648;2023-07-20T13:58:13;14.05;;;13.05;;
52692;SDS011;68218;51.012;-1.648;2023-07-20T14:00:39;14.40;;;13.30;;
52692;SDS011;68218;51.012;-1.648;2023-07-20T14:03:05;14.50;;;13.50;;
52692;SDS011;68218;51.012;-1.648;2023-07-20T14:05:30;14.35;;;13.35;;
52692;SDS011;68218;51.012;-1.648;2023-07-20T14:07:56;13.35;;;12.38;;
52692;SDS011;68218;51.012;-1.648;2023-07-20T14:10:21;13.07;;;12.18;;
52692;SDS011;68218;51.012;-1.648;2023-07-20T14:12:46;14.18;;;13.15;;
52692;SDS011;68218;51.012;-1.648;2023-07-20T14:15:12;20.65;;;19.25;;
52692;SDS011;68218;51.012;-1.648;2023-07-20T14:17:37;14.40;;;13.40;;
52692;SDS011;68218;51.012;-1.648;2023-07-20T14:20:03;13.82;;;12.88;;
52692;SDS011;68218;51.012;-1.648;2023-07-20T14:22:31;14.55;;;13.45;;
52692;SDS011;68218;51.012;-1.648;2023-07-20T14:24:56;15.05;;;14.02;;